Time;durP1;ratioP1;P1;durP2;ratioP2;P2;SDS_P1;SDS_P2;PMS_P1;PMS_P2;Temp;Humidity;BMP_temperature;BMP_pressure;BME280_temperature;BME280_humidity;BME280_pressure;Samples;Min_cycle;Max_cycle;Signal;HPM_P1;HPM_P2
2021/05/13 00:01:32;;;;;;;12.82;3.22;;;9.90;99.90;;;;;;5025606;28;20032;-67
2021/05/13 00:03:57;;;;;;;11.23;2.22;;;9.90;99.90;;;;;;5037019;28;20564;-68
2021/05/13 00:06:23;;;;;;;7.90;2.70;;;9.80;99.90;;;;;;5027250;28;20030;-66
2021/05/13 00:08:58;;;;;;;10.32;2.30;;;9.80;99.90;;;;;;5027740;28;20136;-65
2021/05/13 00:11:32;;;;;;;8.40;2.25;;;9.80;99.90;;;;;;5037727;28;20061;-66
2021/05/13 00:13:59;;;;;;;9.00;2.33;;;9.70;99.90;;;;;;5039654;28;20025;-66
2021/05/13 00:16:30;;;;;;;13.20;2.42;;;9.60;99.90;;;;;;5037965;28;20490;-67
2021/05/13 00:18:57;;;;;;;5.82;2.03;;;9.60;99.90;;;;;;5026924;28;20033;-66
2021/05/13 00:21:23;;;;;;;6.00;2.75;;;9.50;99.90;;;;;;5039681;28;20540;-68
2021/05/13 00:23:49;;;;;;;9.68;2.63;;;9.50;99.90;;;;;;5035934;28;20037;-66
2021/05/13 00:26:15;;;;;;;13.27;3.30;;;9.60;99.90;;;;;;5034569;28;20029;-66
2021/05/13 00:28:40;;;;;;;9.98;2.75;;;9.70;99.90;;;;;;5035328;28;20116;-66
2021/05/13 00:31:06;;;;;;;10.45;2.58;;;9.70;99.90;;;;;;5028485;28;20073;-66
2021/05/13 00:33:32;;;;;;;10.73;2.63;;;9.80;99.90;;;;;;5026384;28;20044;-66
2021/05/13 00:35:57;;;;;;;8.95;3.08;;;9.90;99.90;;;;;;5038736;28;20033;-66
2021/05/13 00:38:23;;;;;;;11.05;2.67;;;9.90;99.90;;;;;;5044320;28;20036;-66
2021/05/13 00:40:49;;;;;;;11.98;2.13;;;10.00;99.90;;;;;;5037384;28;20036;-67
2021/05/13 00:43:14;;;;;;;6.70;2.25;;;9.90;99.90;;;;;;5035932;28;20163;-66
2021/05/13 00:45:41;;;;;;;9.13;2.65;;;10.00;99.90;;;;;;5038808;28;20044;-68
2021/05/13 00:48:13;;;;;;;11.52;2.53;;;10.00;99.90;;;;;;5034813;28;20487;-67
2021/05/13 00:50:38;;;;;;;7.75;2.55;;;9.90;99.90;;;;;;5039054;28;20402;-66
2021/05/13 00:53:09;;;;;;;18.40;2.67;;;9.90;99.90;;;;;;5045174;28;20033;-66
2021/05/13 00:55:36;;;;;;;6.47;2.65;;;9.80;99.90;;;;;;5039399;28;20181;-66
2021/05/13 00:58:03;;;;;;;4.93;2.10;;;9.80;99.90;;;;;;5034898;28;20116;-65
2021/05/13 01:00:45;;;;;;;6.40;2.42;;;9.70;99.90;;;;;;5035214;28;20037;-68
2021/05/13 01:03:10;;;;;;;7.05;2.45;;;9.70;99.90;;;;;;5028582;28;20121;-66
2021/05/13 01:05:37;;;;;;;6.78;2.42;;;9.60;99.90;;;;;;5035492;28;20159;-66
2021/05/13 01:08:04;;;;;;;6.50;2.45;;;9.60;99.90;;;;;;5038462;28;20041;-67
2021/05/13 01:10:30;;;;;;;7.25;2.42;;;9.50;99.90;;;;;;5025869;28;20376;-69
2021/05/13 01:13:09;;;;;;;7.65;2.38;;;9.50;99.90;;;;;;5038380;28;20514;-66
2021/05/13 01:15:43;;;;;;;10.75;2.30;;;9.40;99.90;;;;;;5034167;28;20555;-67
2021/05/13 01:20:35;;;;;;;11.77;2.60;;;9.50;99.90;;;;;;5034555;28;20033;-67
2021/05/13 01:23:02;;;;;;;17.63;3.28;;;9.50;99.90;;;;;;5037547;28;20029;-66
2021/05/13 01:25:28;;;;;;;6.38;2.15;;;9.50;99.90;;;;;;5039764;28;20037;-68
2021/05/13 01:28:01;;;;;;;15.05;4.07;;;9.50;99.90;;;;;;5036691;28;20087;-66
2021/05/13 01:30:29;;;;;;;9.90;3.35;;;9.50;99.90;;;;;;5035444;28;20574;-66
2021/05/13 01:32:59;;;;;;;10.63;3.47;;;9.50;99.90;;;;;;5038991;28;20135;-66
2021/05/13 01:35:26;;;;;;;8.60;3.30;;;9.50;99.90;;;;;;5036988;28;20068;-66
2021/05/13 01:38:15;;;;;;;8.48;3.53;;;9.40;99.90;;;;;;5040257;28;20129;-66
2021/05/13 01:40:49;;;;;;;8.85;3.15;;;9.30;99.90;;;;;;5038117;28;20040;-66
2021/05/13 01:43:14;;;;;;;13.25;3.22;;;9.30;99.90;;;;;;5038812;28;20045;-67
2021/05/13 01:45:41;;;;;;;9.90;3.42;;;9.20;99.90;;;;;;5037526;28;20037;-68
2021/05/13 01:48:07;;;;;;;6.68;2.90;;;9.10;99.90;;;;;;5042442;28;20141;-67
2021/05/13 01:50:34;;;;;;;11.20;3.40;;;9.10;99.90;;;;;;5042547;28;20443;-67
2021/05/13 01:53:03;;;;;;;7.53;3.03;;;9.00;99.90;;;;;;5029569;28;20499;-66
2021/05/13 01:55:29;;;;;;;12.85;3.53;;;9.00;99.90;;;;;;5041091;28;20045;-68
2021/05/13 01:57:55;;;;;;;8.25;3.00;;;8.90;99.90;;;;;;5041319;28;20033;-68
2021/05/13 02:00:22;;;;;;;9.00;3.10;;;8.80;99.90;;;;;;5039438;28;20049;-66
2021/05/13 02:02:49;;;;;;;9.02;2.83;;;8.80;99.90;;;;;;5039229;28;20124;-66
2021/05/13 02:05:16;;;;;;;8.25;2.65;;;8.80;99.90;;;;;;5040830;28;20037;-66
2021/05/13 02:07:42;;;;;;;8.55;2.80;;;8.70;99.90;;;;;;5038281;28;20518;-66
2021/05/13 02:10:10;;;;;;;7.78;3.08;;;8.70;99.90;;;;;;5041003;28;20045;-66
2021/05/13 02:12:36;;;;;;;10.25;2.90;;;8.70;99.90;;;;;;5037781;28;20034;-66
2021/05/13 02:15:04;;;;;;;8.65;2.80;;;8.60;99.90;;;;;;5041723;28;20137;-66
2021/05/13 02:17:30;;;;;;;5.85;3.10;;;8.60;99.90;;;;;;5040631;28;20060;-67
2021/05/13 02:19:55;;;;;;;6.35;2.83;;;8.60;99.90;;;;;;5038290;28;21704;-67
2021/05/13 02:22:21;;;;;;;7.35;2.47;;;8.50;99.90;;;;;;5030324;28;20043;-65
2021/05/13 02:24:46;;;;;;;10.27;3.13;;;8.50;99.90;;;;;;5029809;28;20037;-67
2021/05/13 02:27:12;;;;;;;6.88;2.72;;;8.50;99.90;;;;;;5038691;28;20068;-65
2021/05/13 02:29:37;;;;;;;9.98;2.70;;;8.40;99.90;;;;;;5040289;28;20033;-66
2021/05/13 02:32:03;;;;;;;7.72;2.85;;;8.40;99.90;;;;;;5030941;28;20090;-66
2021/05/13 02:34:29;;;;;;;7.72;3.13;;;8.40;99.90;;;;;;5040575;28;20475;-67
2021/05/13 02:36:54;;;;;;;9.98;3.17;;;8.40;99.90;;;;;;5042011;28;20114;-66
2021/05/13 02:39:20;;;;;;;8.68;2.60;;;8.30;99.90;;;;;;5040872;28;20037;-68
2021/05/13 02:41:45;;;;;;;8.63;3.10;;;8.30;99.90;;;;;;5038784;28;20033;-68
2021/05/13 02:44:11;;;;;;;6.78;2.90;;;8.30;99.90;;;;;;5037588;28;20661;-65
2021/05/13 02:46:37;;;;;;;6.88;2.67;;;8.30;99.90;;;;;;5027660;28;20102;-68
2021/05/13 02:49:04;;;;;;;9.23;3.05;;;8.30;99.90;;;;;;5030654;28;20478;-66
2021/05/13 02:51:29;;;;;;;8.48;2.92;;;8.30;99.90;;;;;;5040954;28;20036;-67
2021/05/13 02:53:55;;;;;;;8.20;3.00;;;8.20;99.90;;;;;;5045237;28;20025;-66
2021/05/13 02:56:21;;;;;;;13.73;3.40;;;8.30;99.90;;;;;;5038002;28;20037;-68
2021/05/13 02:58:49;;;;;;;9.32;3.47;;;8.30;99.90;;;;;;5027886;28;20021;-66
2021/05/13 03:01:29;;;;;;;12.18;3.55;;;8.20;99.90;;;;;;5029581;28;20041;-67
2021/05/13 03:03:56;;;;;;;;;;;8.30;99.90;;;;;;5037338;28;20037;-66
2021/05/13 03:06:22;;;;;;;7.13;2.70;;;8.20;99.90;;;;;;5039812;28;20374;-67
2021/05/13 03:08:58;;;;;;;8.20;3.17;;;8.30;99.90;;;;;;5035560;28;20037;-66
2021/05/13 03:11:26;;;;;;;9.98;3.28;;;8.30;99.90;;;;;;5030784;28;20060;-66
2021/05/13 03:13:54;;;;;;;12.27;3.35;;;8.30;99.90;;;;;;5028077;28;20060;-66
2021/05/13 03:16:21;;;;;;;8.60;3.25;;;8.40;99.90;;;;;;5039398;28;20037;-65
2021/05/13 03:18:51;;;;;;;8.88;3.35;;;8.50;99.90;;;;;;5037268;28;20033;-66
2021/05/13 03:21:29;;;;;;;9.18;2.45;;;8.50;99.90;;;;;;5037358;28;20498;-67
2021/05/13 03:29:06;;;;;;;7.72;3.90;;;8.60;99.90;;;;;;5037190;28;20033;-65
2021/05/13 03:31:32;;;;;;;9.20;3.30;;;8.50;99.90;;;;;;5041378;28;20389;-66
2021/05/13 03:33:58;;;;;;;9.25;2.60;;;8.50;99.90;;;;;;5037287;28;20037;-66
2021/05/13 03:36:24;;;;;;;8.02;3.35;;;8.40;99.90;;;;;;5031624;28;20040;-66
2021/05/13 03:38:49;;;;;;;6.32;2.55;;;8.40;99.90;;;;;;5033034;28;20045;-68
2021/05/13 03:41:15;;;;;;;4.70;2.65;;;8.30;99.90;;;;;;5032592;28;20140;-66
2021/05/13 03:43:40;;;;;;;7.00;2.50;;;8.30;99.90;;;;;;5044071;28;20041;-68
2021/05/13 03:46:06;;;;;;;8.95;2.67;;;8.30;99.90;;;;;;5041263;28;20029;-66
2021/05/13 03:48:32;;;;;;;5.88;2.83;;;8.20;99.90;;;;;;5039417;28;20060;-68
2021/05/13 03:50:57;;;;;;;5.03;2.83;;;8.20;99.90;;;;;;5040343;28;20651;-67
2021/05/13 03:53:23;;;;;;;6.65;2.83;;;8.20;99.90;;;;;;5039576;28;20087;-66
2021/05/13 03:55:51;;;;;;;7.40;3.03;;;8.20;99.90;;;;;;5040407;28;20029;-67
2021/05/13 03:58:24;;;;;;;7.85;2.90;;;8.20;99.90;;;;;;5037597;28;20091;-66
2021/05/13 04:03:15;;;;;;;6.25;2.90;;;8.20;99.90;;;;;;5042128;28;20514;-66
2021/05/13 04:05:41;;;;;;;7.20;3.13;;;8.20;99.90;;;;;;5036656;28;20041;-66
2021/05/13 04:08:08;;;;;;;6.05;2.75;;;8.20;99.90;;;;;;5036710;28;20460;-67
2021/05/13 04:10:34;;;;;;;7.47;3.60;;;8.20;99.90;;;;;;5036777;28;20041;-67
2021/05/13 04:13:03;;;;;;;10.77;3.55;;;8.20;99.90;;;;;;5038284;28;20163;-66
2021/05/13 04:15:29;;;;;;;7.60;3.22;;;8.20;99.90;;;;;;5036049;28;20060;-67
2021/05/13 04:17:55;;;;;;;9.38;3.78;;;8.30;99.90;;;;;;5039194;28;20094;-66
2021/05/13 04:20:21;;;;;;;7.40;3.65;;;8.40;99.90;;;;;;5038539;28;20406;-66
2021/05/13 04:22:46;;;;;;;16.73;3.60;;;8.40;99.90;;;;;;5036399;28;20032;-66
2021/05/13 04:25:12;;;;;;;10.80;3.38;;;8.40;99.90;;;;;;5037050;28;20034;-66
2021/05/13 04:27:38;;;;;;;8.90;3.63;;;8.40;99.90;;;;;;5037345;28;20137;-67
2021/05/13 04:30:05;;;;;;;13.65;3.70;;;8.50;99.90;;;;;;5026382;28;20175;-66
2021/05/13 04:32:30;;;;;;;14.55;4.00;;;8.50;99.90;;;;;;5028648;28;20118;-66
2021/05/13 04:34:56;;;;;;;6.43;3.92;;;8.60;99.90;;;;;;5034700;28;20475;-66
2021/05/13 04:37:21;;;;;;;9.13;3.92;;;8.70;99.90;;;;;;5045924;28;20033;-66
2021/05/13 04:39:47;;;;;;;11.98;4.18;;;8.80;99.90;;;;;;5026157;28;20152;-65
2021/05/13 04:42:12;;;;;;;7.78;4.00;;;8.90;99.90;;;;;;5037382;28;20033;-68
2021/05/13 04:44:38;;;;;;;12.05;4.28;;;8.90;99.90;;;;;;5027777;28;20060;-66
2021/05/13 04:47:25;;;;;;;7.40;3.47;;;9.00;99.90;;;;;;5036119;28;20064;-66
2021/05/13 04:49:53;;;;;;;7.13;4.10;;;9.00;99.90;;;;;;5034517;28;20037;-67
2021/05/13 04:52:20;;;;;;;7.60;3.45;;;9.10;99.90;;;;;;5046257;28;20033;-66
2021/05/13 04:54:50;;;;;;;6.75;3.95;;;9.10;99.90;;;;;;5028190;28;20175;-66
2021/05/13 04:57:17;;;;;;;9.30;3.85;;;9.20;99.90;;;;;;5035342;28;20087;-66
2021/05/13 04:59:43;;;;;;;8.50;3.38;;;9.30;99.90;;;;;;5036440;28;20025;-65
2021/05/13 05:02:09;;;;;;;8.60;3.38;;;9.30;99.90;;;;;;5038669;28;20157;-66
2021/05/13 05:04:34;;;;;;;8.00;2.95;;;9.50;99.90;;;;;;5037323;28;20541;-66
2021/05/13 05:07:00;;;;;;;7.32;3.22;;;9.50;99.90;;;;;;5038369;28;20040;-67
2021/05/13 05:09:26;;;;;;;4.82;3.28;;;9.60;99.90;;;;;;5034565;28;20048;-66
2021/05/13 05:11:52;;;;;;;5.45;3.50;;;9.70;99.90;;;;;;5038592;28;20021;-66
2021/05/13 05:14:17;;;;;;;7.15;2.63;;;9.80;99.90;;;;;;5035307;28;20080;-66
2021/05/13 05:16:44;;;;;;;7.28;3.25;;;9.80;99.90;;;;;;5037155;28;20029;-66
2021/05/13 05:19:09;;;;;;;6.03;3.22;;;9.90;99.90;;;;;;5038022;28;20070;-65
2021/05/13 05:21:35;;;;;;;4.88;3.03;;;10.10;99.90;;;;;;5040836;28;20037;-67
2021/05/13 05:24:00;;;;;;;7.68;2.63;;;10.10;99.90;;;;;;5032064;28;20124;-66
2021/05/13 05:26:26;;;;;;;6.53;2.92;;;10.20;99.90;;;;;;5038797;28;20079;-64
2021/05/13 05:28:52;;;;;;;8.93;2.63;;;10.30;99.90;;;;;;5040690;28;20040;-67
2021/05/13 05:31:18;;;;;;;8.32;3.03;;;10.40;99.90;;;;;;5037309;28;20425;-67
2021/05/13 05:33:43;;;;;;;4.93;2.17;;;10.60;99.90;;;;;;5039853;28;20458;-67
2021/05/13 05:36:09;;;;;;;7.38;2.50;;;10.90;99.90;;;;;;5040667;28;20075;-65
2021/05/13 05:38:35;;;;;;;8.00;3.33;;;11.20;99.90;;;;;;5045232;28;20122;-67
2021/05/13 05:41:00;;;;;;;6.05;2.50;;;11.60;99.90;;;;;;5028397;28;20040;-67
2021/05/13 05:43:26;;;;;;;4.65;2.03;;;12.20;99.90;;;;;;5039557;28;20037;-68
2021/05/13 05:45:51;;;;;;;4.45;2.25;;;13.00;99.90;;;;;;5036421;28;20036;-67
2021/05/13 05:48:17;;;;;;;7.55;1.80;;;13.70;99.90;;;;;;5039207;28;20052;-67
2021/05/13 05:50:43;;;;;;;3.83;1.75;;;14.40;99.90;;;;;;5037212;28;20040;-68
2021/05/13 05:53:10;;;;;;;4.63;1.80;;;14.90;99.90;;;;;;5044586;28;20096;-68
2021/05/13 05:55:38;;;;;;;3.17;1.58;;;15.30;99.90;;;;;;5037810;28;20061;-68
2021/05/13 05:58:04;;;;;;;5.63;1.88;;;15.80;99.90;;;;;;5037403;28;20049;-68
2021/05/13 06:00:29;;;;;;;5.28;1.52;;;16.30;99.90;;;;;;5036072;28;20029;-68
2021/05/13 06:02:55;;;;;;;4.85;1.60;;;17.00;99.90;;;;;;5035254;28;20063;-67
2021/05/13 06:05:21;;;;;;;3.05;1.40;;;18.00;99.90;;;;;;5034931;28;20433;-68
2021/05/13 06:07:46;;;;;;;2.53;1.27;;;18.70;99.90;;;;;;5040820;28;20033;-69
2021/05/13 06:10:14;;;;;;;4.82;1.30;;;19.20;99.90;;;;;;5037691;28;20041;-66
2021/05/13 06:12:41;;;;;;;3.72;1.58;;;20.20;99.90;;;;;;5038490;28;20029;-67
2021/05/13 06:15:09;;;;;;;5.07;1.80;;;21.00;99.90;;;;;;5040668;28;20111;-69
2021/05/13 06:17:35;;;;;;;3.97;1.45;;;21.30;96.70;;;;;;5041463;28;20052;-67
2021/05/13 06:20:06;;;;;;;4.10;1.80;;;22.00;95.10;;;;;;5043878;28;20457;-69
2021/05/13 06:22:32;;;;;;;8.63;2.00;;;22.60;91.70;;;;;;5028067;28;20060;-66
2021/05/13 06:24:58;;;;;;;4.13;2.10;;;23.10;84.20;;;;;;5041613;28;20036;-69
2021/05/13 06:27:24;;;;;;;6.07;1.92;;;23.00;78.40;;;;;;5036345;28;20037;-69
2021/05/13 06:29:50;;;;;;;3.70;1.73;;;23.30;80.00;;;;;;5039209;28;20052;-68
2021/05/13 06:32:16;;;;;;;2.92;1.40;;;23.80;78.20;;;;;;5042318;28;20520;-68
2021/05/13 06:34:43;;;;;;;6.78;2.13;;;24.20;70.00;;;;;;5044466;28;20056;-68
2021/05/13 06:37:08;;;;;;;8.27;2.70;;;23.70;72.30;;;;;;5042290;28;20059;-69
2021/05/13 06:39:34;;;;;;;5.93;2.38;;;23.90;74.60;;;;;;5029672;28;20500;-68
2021/05/13 06:42:01;;;;;;;3.72;2.08;;;24.30;70.30;;;;;;5042540;28;20033;-65
2021/05/13 06:44:27;;;;;;;4.57;1.92;;;24.70;64.80;;;;;;5038784;28;20029;-68
2021/05/13 06:46:52;;;;;;;7.43;2.40;;;25.00;65.70;;;;;;5038484;28;20391;-66
2021/05/13 06:49:18;;;;;;;6.55;2.92;;;25.40;61.00;;;;;;5034228;28;20033;-67
2021/05/13 06:51:44;;;;;;;6.95;2.97;;;24.60;62.90;;;;;;5027537;28;20032;-68
2021/05/13 06:54:10;;;;;;;3.92;2.58;;;24.50;63.80;;;;;;5044486;28;20033;-67
2021/05/13 06:56:36;;;;;;;5.25;2.60;;;24.80;61.90;;;;;;5044445;28;20060;-69
2021/05/13 06:59:01;;;;;;;7.32;3.00;;;25.40;61.30;;;;;;5040967;28;20533;-68
2021/05/13 07:01:27;;;;;;;6.07;2.78;;;25.50;59.40;;;;;;5037746;28;20025;-65
2021/05/13 07:03:53;;;;;;;5.05;2.65;;;25.70;59.70;;;;;;5041470;28;20036;-68
2021/05/13 07:06:18;;;;;;;6.07;2.92;;;26.10;59.80;;;;;;5043181;28;20406;-67
2021/05/13 07:08:44;;;;;;;5.82;3.15;;;26.40;58.20;;;;;;5040122;28;20508;-67
2021/05/13 07:11:09;;;;;;;4.10;2.85;;;26.50;57.30;;;;;;5044727;28;20037;-69
2021/05/13 07:13:36;;;;;;;6.82;3.25;;;25.70;58.90;;;;;;5042518;28;20056;-68
2021/05/13 07:16:02;;;;;;;5.53;3.17;;;26.40;58.70;;;;;;5042277;28;20128;-68
2021/05/13 07:18:28;;;;;;;6.38;3.00;;;27.20;56.20;;;;;;5042295;28;20145;-67
2021/05/13 07:20:54;;;;;;;5.22;2.80;;;26.90;55.30;;;;;;5037856;28;20048;-68
2021/05/13 07:23:20;;;;;;;7.05;3.50;;;27.10;54.00;;;;;;5039961;28;20524;-68
2021/05/13 07:25:47;;;;;;;10.63;3.85;;;26.90;55.40;;;;;;5043687;28;20037;-67
2021/05/13 07:28:13;;;;;;;6.00;3.40;;;26.80;56.60;;;;;;5041913;28;20491;-67
2021/05/13 07:30:39;;;;;;;6.35;3.17;;;27.00;55.90;;;;;;5039081;28;20116;-68
2021/05/13 07:33:05;;;;;;;8.50;3.58;;;27.70;53.30;;;;;;5033540;28;20660;-68
2021/05/13 07:35:31;;;;;;;5.93;3.47;;;27.30;54.40;;;;;;5040264;28;20049;-68
2021/05/13 07:37:57;;;;;;;7.63;3.13;;;28.10;52.40;;;;;;5036942;28;20083;-67
2021/05/13 07:40:25;;;;;;;5.82;3.47;;;28.30;51.00;;;;;;5042188;28;20494;-67
2021/05/13 07:42:51;;;;;;;5.13;3.03;;;27.80;51.10;;;;;;5044667;28;20606;-68
2021/05/13 07:45:17;;;;;;;8.50;3.28;;;27.90;52.50;;;;;;5044308;28;20095;-68
2021/05/13 07:47:44;;;;;;;6.40;3.65;;;27.80;52.60;;;;;;5040758;28;20029;-68
2021/05/13 07:50:12;;;;;;;5.70;3.78;;;27.80;51.10;;;;;;5044314;28;20032;-68
2021/05/13 07:52:39;;;;;;;5.77;3.67;;;27.60;51.60;;;;;;5041561;28;20438;-68
2021/05/13 07:55:06;;;;;;;5.47;3.08;;;27.70;52.70;;;;;;5041761;28;20051;-67
2021/05/13 07:57:31;;;;;;;5.82;3.92;;;27.90;52.20;;;;;;5033383;28;20121;-68
2021/05/13 07:59:57;;;;;;;7.97;4.22;;;28.30;49.20;;;;;;5041344;28;20443;-68
2021/05/13 08:02:23;;;;;;;6.97;3.75;;;27.80;49.60;;;;;;5045487;28;20113;-67
2021/05/13 08:04:48;;;;;;;7.72;4.05;;;27.00;50.70;;;;;;5043900;28;20033;-68
2021/05/13 08:07:20;;;;;;;5.72;3.83;;;27.30;49.60;;;;;;5044840;28;20094;-68
2021/05/13 08:09:46;;;;;;;12.85;3.63;;;27.00;50.80;;;;;;5026263;28;20103;-68
2021/05/13 08:12:12;;;;;;;6.68;3.13;;;27.00;50.80;;;;;;5041344;28;20037;-68
2021/05/13 08:14:38;;;;;;;6.28;3.08;;;26.60;52.70;;;;;;5044880;28;20496;-68
2021/05/13 08:17:03;;;;;;;7.50;3.67;;;26.40;52.80;;;;;;5043641;28;20060;-68
2021/05/13 08:19:29;;;;;;;7.63;3.10;;;25.90;53.20;;;;;;5042921;28;20071;-67
2021/05/13 08:21:55;;;;;;;4.55;2.53;;;25.90;53.10;;;;;;5039815;28;20049;-69
2021/05/13 08:24:20;;;;;;;5.95;2.92;;;25.60;53.70;;;;;;5039825;28;20029;-68
2021/05/13 08:26:46;;;;;;;5.47;2.25;;;25.10;54.20;;;;;;5035502;28;20052;-67
2021/05/13 08:29:11;;;;;;;5.70;1.83;;;24.90;53.20;;;;;;5039441;28;20033;-67
2021/05/13 08:31:37;;;;;;;4.88;2.75;;;24.60;53.40;;;;;;5035099;28;20044;-66
2021/05/13 08:34:03;;;;;;;4.03;2.42;;;24.10;54.50;;;;;;5023885;28;20048;-67
2021/05/13 08:36:28;;;;;;;6.13;2.45;;;23.60;55.30;;;;;;5045879;28;20090;-68
2021/05/13 08:38:54;;;;;;;6.18;2.30;;;23.30;57.60;;;;;;5038405;28;20032;-68
2021/05/13 08:41:19;;;;;;;5.72;2.15;;;23.30;57.90;;;;;;5043895;28;20112;-68
2021/05/13 08:43:50;;;;;;;3.75;1.85;;;23.30;55.80;;;;;;5039523;28;20113;-67
2021/05/13 08:46:20;;;;;;;5.95;2.40;;;23.20;56.00;;;;;;5040128;28;20051;-67
2021/05/13 08:48:48;;;;;;;5.90;2.28;;;22.80;55.30;;;;;;5037655;28;20025;-68
2021/05/13 08:51:13;;;;;;;3.85;2.20;;;22.70;57.10;;;;;;5036633;28;20044;-68
2021/05/13 08:53:53;;;;;;;9.45;2.78;;;22.40;59.60;;;;;;5039761;28;20395;-67
2021/05/13 08:56:19;;;;;;;7.82;2.22;;;22.20;58.90;;;;;;5040846;28;20466;-69
2021/05/13 08:58:45;;;;;;;5.30;2.20;;;22.10;59.50;;;;;;5036644;28;20102;-69
2021/05/13 09:01:21;;;;;;;4.93;2.47;;;22.10;60.10;;;;;;5039606;28;20039;-68
2021/05/13 09:03:48;;;;;;;7.05;2.05;;;21.80;59.50;;;;;;5023821;28;20039;-69
2021/05/13 09:06:31;;;;;;;6.55;2.42;;;21.90;62.10;;;;;;5038694;28;20041;-69
2021/05/13 09:09:17;;;;;;;2.85;2.05;;;21.90;59.30;;;;;;5036431;28;20040;-71
2021/05/13 09:11:57;;;;;;;4.68;1.98;;;22.10;60.30;;;;;;5040674;28;20493;-70
2021/05/13 09:14:25;;;;;;;4.97;2.65;;;22.30;60.60;;;;;;5040249;28;20509;-69
2021/05/13 09:16:51;;;;;;;6.55;2.35;;;22.20;60.70;;;;;;5038249;28;20482;-70
2021/05/13 09:19:26;;;;;;;5.85;2.30;;;21.90;59.80;;;;;;5039204;28;20116;-68
2021/05/13 09:21:56;;;;;;;5.90;2.42;;;21.70;65.40;;;;;;5041669;28;20035;-70
2021/05/13 09:24:48;;;;;;;5.28;2.38;;;21.40;65.00;;;;;;5027016;28;20429;-70
2021/05/13 09:27:18;;;;;;;4.20;1.70;;;21.10;68.20;;;;;;5038372;28;20637;-69
2021/05/13 09:29:44;;;;;;;5.47;1.88;;;20.80;69.30;;;;;;5039457;28;20048;-69
2021/05/13 09:32:18;;;;;;;7.03;1.85;;;20.80;73.60;;;;;;5041428;28;20039;-69
2021/05/13 09:34:44;;;;;;;6.10;1.90;;;21.00;69.60;;;;;;5033076;28;20067;-69
2021/05/13 09:37:10;;;;;;;5.82;2.00;;;21.20;68.50;;;;;;5044146;28;20049;-68
2021/05/13 09:39:36;;;;;;;5.30;1.75;;;21.10;69.00;;;;;;5040091;28;20041;-69
2021/05/13 09:42:04;;;;;;;4.45;1.75;;;21.20;70.40;;;;;;5042762;28;20518;-69
2021/05/13 09:44:35;;;;;;;6.03;1.73;;;21.60;69.00;;;;;;5043421;28;20112;-68
2021/05/13 09:47:13;;;;;;;4.72;1.80;;;21.80;67.40;;;;;;5043265;28;20148;-69
2021/05/13 09:50:03;;;;;;;5.80;1.75;;;21.90;66.70;;;;;;5035352;28;20140;-69
2021/05/13 09:52:47;;;;;;;4.22;1.55;;;22.00;65.00;;;;;;5042264;28;20072;-70
2021/05/13 09:55:21;;;;;;;4.68;1.52;;;21.70;64.30;;;;;;5037312;28;20033;-68
2021/05/13 09:57:52;;;;;;;3.20;1.50;;;21.70;66.80;;;;;;5040446;28;20033;-68
2021/05/13 10:00:40;;;;;;;5.72;2.33;;;21.90;62.90;;;;;;5039825;28;20025;-69
2021/05/13 10:03:10;;;;;;;4.60;1.48;;;21.80;63.10;;;;;;5047417;28;20091;-69
2021/05/13 10:05:40;;;;;;;2.55;1.17;;;22.00;63.80;;;;;;5042986;28;20028;-69
2021/05/13 10:08:06;;;;;;;4.10;1.50;;;21.80;63.90;;;;;;5043136;28;20033;-69
2021/05/13 10:10:32;;;;;;;6.25;1.55;;;21.90;63.70;;;;;;5042176;28;20063;-68
2021/05/13 10:12:58;;;;;;;5.15;1.50;;;21.90;62.60;;;;;;5042112;28;20406;-67
2021/05/13 10:15:26;;;;;;;3.33;1.48;;;22.10;64.10;;;;;;5043471;28;20033;-68
2021/05/13 10:17:55;;;;;;;8.25;2.00;;;22.00;61.90;;;;;;5032717;28;20040;-68
2021/05/13 10:20:23;;;;;;;3.05;1.45;;;21.50;63.70;;;;;;5042932;28;20524;-68
2021/05/13 10:22:48;;;;;;;4.30;1.55;;;21.20;65.20;;;;;;5043488;28;20514;-68
2021/05/13 10:25:18;;;;;;;7.53;1.60;;;20.80;67.30;;;;;;5041194;28;20041;-69
2021/05/13 10:27:48;;;;;;;4.00;1.13;;;20.60;65.80;;;;;;5045266;28;20056;-68
2021/05/13 10:30:15;;;;;;;5.47;1.50;;;20.50;65.20;;;;;;5041415;28;20032;-68
2021/05/13 10:32:40;;;;;;;6.35;1.35;;;20.50;65.50;;;;;;5040106;28;20047;-68
2021/05/13 10:35:07;;;;;;;3.22;0.80;;;20.70;64.20;;;;;;5055180;28;20041;-68
2021/05/13 10:37:39;;;;;;;3.20;1.08;;;20.90;65.50;;;;;;5043596;28;20108;-68
2021/05/13 10:42:40;;;;;;;4.45;1.17;;;21.60;61.90;;;;;;5043579;28;20124;-69
2021/05/13 10:45:30;;;;;;;4.97;1.10;;;21.70;62.10;;;;;;5042231;28;20025;-69
2021/05/13 10:48:23;;;;;;;7.17;1.00;;;21.60;61.40;;;;;;5045107;28;20044;-68
2021/05/13 10:51:03;;;;;;;6.68;0.77;;;21.50;61.20;;;;;;5030953;28;20032;-69
2021/05/13 10:53:47;;;;;;;6.50;1.20;;;21.00;60.40;;;;;;5047563;28;20037;-69
2021/05/13 10:56:25;;;;;;;5.43;0.77;;;20.90;58.60;;;;;;5037376;28;20103;-69
2021/05/13 10:59:00;;;;;;;3.05;0.98;;;20.80;60.00;;;;;;5041987;28;20517;-68
2021/05/13 11:01:28;;;;;;;4.05;0.95;;;20.90;60.20;;;;;;5042438;28;20081;-68
2021/05/13 11:07:00;;;;;;;3.00;1.00;;;21.10;59.50;;;;;;5033936;28;20029;-68
2021/05/13 11:09:47;;;;;;;5.80;1.10;;;21.40;58.90;;;;;;5035769;28;20440;-69
2021/05/13 11:12:14;;;;;;;1.83;0.70;;;21.60;59.50;;;;;;5036894;28;20833;-68
2021/05/13 11:20:19;;;;;;;6.03;1.05;;;22.10;59.60;;;;;;5044937;28;20124;-68
2021/05/13 11:23:13;;;;;;;2.80;1.30;;;22.00;58.30;;;;;;5039294;28;20048;-68
2021/05/13 11:25:43;;;;;;;2.78;0.73;;;22.20;57.70;;;;;;5039876;28;20048;-68
2021/05/13 11:28:20;;;;;;;3.20;1.00;;;22.30;58.80;;;;;;5044435;28;20041;-69
2021/05/13 11:30:48;;;;;;;1.30;0.82;;;22.40;58.50;;;;;;5041768;28;20299;-68
2021/05/13 11:33:14;;;;;;;4.55;1.08;;;22.10;57.90;;;;;;5041867;28;20193;-67
2021/05/13 11:35:40;;;;;;;4.40;0.95;;;21.80;59.10;;;;;;5042998;28;20040;-69
2021/05/13 11:38:23;;;;;;;4.32;1.08;;;21.60;57.50;;;;;;5041607;28;20037;-68
2021/05/13 11:40:50;;;;;;;2.95;0.70;;;21.20;58.50;;;;;;5031071;28;20138;-68
2021/05/13 11:43:17;;;;;;;2.72;0.88;;;21.20;59.80;;;;;;5030376;28;20048;-69
2021/05/13 11:45:43;;;;;;;3.83;0.88;;;21.30;60.50;;;;;;5041014;28;20040;-68
2021/05/13 11:48:22;;;;;;;2.63;0.77;;;21.40;58.60;;;;;;5040570;28;20041;-68
2021/05/13 11:50:48;;;;;;;3.75;0.90;;;21.30;57.20;;;;;;5042684;28;20036;-69
2021/05/13 11:53:17;;;;;;;5.10;1.13;;;21.30;57.10;;;;;;5034879;28;20034;-68
2021/05/13 11:55:44;;;;;;;4.70;0.90;;;21.30;57.90;;;;;;5043885;28;20186;-69
2021/05/13 11:58:12;;;;;;;4.13;1.00;;;21.30;57.20;;;;;;5042996;28;20038;-69
2021/05/13 12:00:40;;;;;;;2.63;1.23;;;21.40;56.20;;;;;;5044780;28;20037;-69
2021/05/13 12:03:14;;;;;;;3.10;0.90;;;21.60;56.50;;;;;;5042675;28;20044;-69
2021/05/13 12:05:51;;;;;;;1.60;0.70;;;21.60;56.00;;;;;;5022032;28;20033;-69
2021/05/13 12:08:19;;;;;;;3.50;1.08;;;21.60;56.10;;;;;;5025314;28;20600;-68
2021/05/13 12:10:45;;;;;;;7.15;1.30;;;21.80;55.30;;;;;;5033397;28;20037;-70
2021/05/13 12:13:11;;;;;;;3.67;0.98;;;21.80;54.80;;;;;;5047947;28;20199;-68
2021/05/13 12:15:37;;;;;;;5.78;1.20;;;21.80;52.30;;;;;;5047621;28;20182;-69
2021/05/13 12:18:03;;;;;;;4.32;1.40;;;21.60;53.70;;;;;;5045556;28;20490;-69
2021/05/13 12:20:31;;;;;;;5.00;0.90;;;21.60;53.80;;;;;;5041379;28;20056;-67
2021/05/13 12:22:58;;;;;;;4.00;1.10;;;21.50;52.90;;;;;;5030708;28;20041;-69
2021/05/13 12:25:23;;;;;;;2.65;1.02;;;21.50;54.80;;;;;;5044907;28;20051;-69
2021/05/13 12:27:49;;;;;;;3.95;0.90;;;21.60;54.60;;;;;;5033303;28;20394;-69
2021/05/13 12:30:18;;;;;;;5.95;0.85;;;21.50;54.50;;;;;;5033340;28;20041;-69
2021/05/13 12:32:43;;;;;;;5.95;1.08;;;21.30;55.70;;;;;;5033559;28;20037;-69
2021/05/13 12:35:30;;;;;;;4.43;1.00;;;21.20;57.00;;;;;;5047253;28;20082;-69
2021/05/13 12:38:16;;;;;;;5.53;0.93;;;20.90;56.30;;;;;;5049127;28;20041;-68
2021/05/13 12:40:43;;;;;;;5.72;1.08;;;20.70;56.90;;;;;;5044176;28;20075;-69
2021/05/13 12:43:13;;;;;;;2.40;0.60;;;20.70;56.50;;;;;;5032247;28;20036;-69
2021/05/13 12:45:42;;;;;;;2.58;0.82;;;20.80;58.70;;;;;;5041815;28;20040;-69
2021/05/13 12:48:09;;;;;;;4.90;1.10;;;20.70;60.10;;;;;;5043610;28;20132;-69
2021/05/13 12:50:34;;;;;;;6.03;0.98;;;20.60;60.70;;;;;;5031437;28;20033;-69
2021/05/13 12:53:19;;;;;;;3.28;1.17;;;20.60;62.20;;;;;;5039345;28;20029;-69
2021/05/13 12:55:46;;;;;;;4.60;1.05;;;20.60;60.20;;;;;;5049347;28;20495;-70
2021/05/13 12:58:17;;;;;;;2.22;1.00;;;20.70;61.40;;;;;;5048736;28;20029;-67
2021/05/13 13:00:44;;;;;;;7.00;1.52;;;20.90;59.90;;;;;;5047432;28;20033;-70
2021/05/13 13:03:15;;;;;;;4.03;1.05;;;21.10;57.20;;;;;;5043340;28;20112;-68
2021/05/13 13:05:42;;;;;;;1.80;0.77;;;21.20;57.00;;;;;;5046508;28;20028;-68
2021/05/13 13:08:08;;;;;;;4.05;0.80;;;21.30;57.20;;;;;;5041683;28;20033;-69
2021/05/13 13:10:39;;;;;;;8.45;0.95;;;21.30;59.40;;;;;;5027684;28;20044;-69
2021/05/13 13:13:15;;;;;;;2.92;0.98;;;21.40;57.30;;;;;;5042278;28;20108;-69
2021/05/13 13:18:15;;;;;;;3.53;0.95;;;21.30;57.10;;;;;;5044422;28;20585;-68
2021/05/13 13:20:41;;;;;;;4.00;0.90;;;21.00;57.20;;;;;;5044217;28;20036;-69